sensor_id;sensor_type;location;lat;lon;timestamp;pressure;altitude;pressure_sealevel;temperature;humidity
56721;BME280;53183;47.412;18.884;2024-01-30T00:01:10;101554.81;;;-3.55;100.00
56721;BME280;53183;47.412;18.884;2024-01-30T00:03:38;101560.09;;;-3.51;100.00
56721;BME280;53183;47.412;18.884;2024-01-30T00:06:07;101553.94;;;-3.55;100.00
56721;BME280;53183;47.412;18.884;2024-01-30T00:08:34;101552.25;;;-3.55;100.00
56721;BME280;53183;47.412;18.884;2024-01-30T00:11:02;101555.75;;;-3.53;100.00
56721;BME280;53183;47.412;18.884;2024-01-30T00:13:29;101556.41;;;-3.58;100.00
56721;BME280;53183;47.412;18.884;2024-01-30T00:15:56;101559.00;;;-3.58;100.00
56721;BME280;53183;47.412;18.884;2024-01-30T00:18:23;101557.19;;;-3.61;100.00
56721;BME280;53183;47.412;18.884;2024-01-30T00:20:50;101558.00;;;-3.62;100.00
56721;BME280;53183;47.412;18.884;2024-01-30T00:23:17;101559.88;;;-3.58;100.00
56721;BME280;53183;47.412;18.884;2024-01-30T00:25:44;101559.66;;;-3.64;100.00
56721;BME280;53183;47.412;18.884;2024-01-30T00:28:11;101564.84;;;-3.62;100.00
56721;BME280;53183;47.412;18.884;2024-01-30T00:30:38;101569.00;;;-3.67;100.00
56721;BME280;53183;47.412;18.884;2024-01-30T00:33:06;101566.53;;;-3.64;100.00
56721;BME280;53183;47.412;18.884;2024-01-30T00:35:33;101570.94;;;-3.62;100.00
56721;BME280;53183;47.412;18.884;2024-01-30T00:38:00;101579.25;;;-3.69;100.00
56721;BME280;53183;47.412;18.884;2024-01-30T00:40:27;101575.87;;;-3.68;100.00
56721;BME280;53183;47.412;18.884;2024-01-30T00:42:54;101576.75;;;-3.67;100.00
56721;BME280;53183;47.412;18.884;2024-01-30T00:45:21;101575.87;;;-3.68;100.00
56721;BME280;53183;47.412;18.884;2024-01-30T00:47:48;101580.91;;;-3.71;100.00
56721;BME280;53183;47.412;18.884;2024-01-30T00:50:16;101573.81;;;-3.77;100.00
56721;BME280;53183;47.412;18.884;2024-01-30T00:52:43;101586.84;;;-3.73;100.00
56721;BME280;53183;47.412;18.884;2024-01-30T00:55:12;101579.09;;;-3.73;100.00
56721;BME280;53183;47.412;18.884;2024-01-30T00:57:40;101577.50;;;-3.70;100.00
56721;BME280;53183;47.412;18.884;2024-01-30T01:00:11;101575.00;;;-3.68;100.00
56721;BME280;53183;47.412;18.884;2024-01-30T01:02:39;101573.94;;;-3.73;100.00
56721;BME280;53183;47.412;18.884;2024-01-30T01:05:06;101572.84;;;-3.79;100.00
56721;BME280;53183;47.412;18.884;2024-01-30T01:07:34;101567.00;;;-3.74;100.00
56721;BME280;53183;47.412;18.884;2024-01-30T01:10:01;101569.16;;;-3.63;100.00
56721;BME280;53183;47.412;18.884;2024-01-30T01:12:29;101563.06;;;-3.65;100.00
56721;BME280;53183;47.412;18.884;2024-01-30T01:14:56;101568.81;;;-3.72;100.00
56721;BME280;53183;47.412;18.884;2024-01-30T01:17:25;101567.50;;;-3.61;100.00
56721;BME280;53183;47.412;18.884;2024-01-30T01:19:52;101563.75;;;-3.69;100.00
56721;BME280;53183;47.412;18.884;2024-01-30T01:22:22;101560.84;;;-3.78;100.00
56721;BME280;53183;47.412;18.884;2024-01-30T01:24:49;101561.50;;;-3.84;100.00
56721;BME280;53183;47.412;18.884;2024-01-30T01:27:17;101555.44;;;-3.84;100.00
56721;BME280;53183;47.412;18.884;2024-01-30T01:29:44;101552.75;;;-3.87;100.00
56721;BME280;53183;47.412;18.884;2024-01-30T01:32:12;101548.22;;;-3.93;100.00
56721;BME280;53183;47.412;18.884;2024-01-30T01:34:39;101550.81;;;-3.93;100.00
56721;BME280;53183;47.412;18.884;2024-01-30T01:37:08;101548.22;;;-3.93;100.00
56721;BME280;53183;47.412;18.884;2024-01-30T01:39:36;101541.94;;;-3.99;100.00
56721;BME280;53183;47.412;18.884;2024-01-30T01:42:03;101540.06;;;-4.04;100.00
56721;BME280;53183;47.412;18.884;2024-01-30T01:44:30;101539.06;;;-4.07;100.00
56721;BME280;53183;47.412;18.884;2024-01-30T01:46:58;101534.78;;;-4.07;100.00
56721;BME280;53183;47.412;18.884;2024-01-30T01:49:27;101535.66;;;-4.06;100.00
56721;BME280;53183;47.412;18.884;2024-01-30T01:51:58;101541.66;;;-4.07;100.00
56721;BME280;53183;47.412;18.884;2024-01-30T01:54:25;101533.84;;;-4.09;100.00
56721;BME280;53183;47.412;18.884;2024-01-30T01:56:54;101535.50;;;-4.11;100.00
56721;BME280;53183;47.412;18.884;2024-01-30T01:59:23;101538.19;;;-4.08;100.00
56721;BME280;53183;47.412;18.884;2024-01-30T02:01:52;101530.34;;;-4.11;100.00
56721;BME280;53183;47.412;18.884;2024-01-30T02:04:20;101535.50;;;-4.11;100.00
56721;BME280;53183;47.412;18.884;2024-01-30T02:06:47;101541.66;;;-4.07;100.00
56721;BME280;53183;47.412;18.884;2024-01-30T02:09:15;101534.66;;;-3.87;100.00
56721;BME280;53183;47.412;18.884;2024-01-30T02:11:42;101541.94;;;-3.99;100.00
56721;BME280;53183;47.412;18.884;2024-01-30T02:14:09;101532.22;;;-4.07;100.00
56721;BME280;53183;47.412;18.884;2024-01-30T02:16:36;101536.53;;;-4.06;100.00
56721;BME280;53183;47.412;18.884;2024-01-30T02:19:04;101533.97;;;-4.06;100.00
56721;BME280;53183;47.412;18.884;2024-01-30T02:21:32;101531.44;;;-4.04;100.00
56721;BME280;53183;47.412;18.884;2024-01-30T02:23:59;101532.97;;;-4.09;100.00
56721;BME280;53183;47.412;18.884;2024-01-30T02:26:26;101535.31;;;-4.15;100.00
56721;BME280;53183;47.412;18.884;2024-01-30T02:28:53;101531.69;;;-4.20;100.00
56721;BME280;53183;47.412;18.884;2024-01-30T02:31:20;101531.81;;;-4.17;100.00
56721;BME280;53183;47.412;18.884;2024-01-30T02:33:50;101532.56;;;-4.20;100.00
56721;BME280;53183;47.412;18.884;2024-01-30T02:36:18;101534.38;;;-4.17;100.00
56721;BME280;53183;47.412;18.884;2024-01-30T02:38:46;101525.72;;;-4.18;100.00
56721;BME280;53183;47.412;18.884;2024-01-30T02:41:14;101529.53;;;-4.08;100.00
56721;BME280;53183;47.412;18.884;2024-01-30T02:43:42;101527.63;;;-4.14;100.00
56721;BME280;53183;47.412;18.884;2024-01-30T02:46:10;101530.25;;;-4.12;100.00
56721;BME280;53183;47.412;18.884;2024-01-30T02:48:39;101531.84;;;-4.16;100.00
56721;BME280;53183;47.412;18.884;2024-01-30T02:51:06;101538.41;;;-4.02;100.00
56721;BME280;53183;47.412;18.884;2024-01-30T02:53:33;101533.72;;;-4.12;100.00
56721;BME280;53183;47.412;18.884;2024-01-30T02:56:02;101537.25;;;-4.10;100.00
56721;BME280;53183;47.412;18.884;2024-01-30T02:58:29;101528.44;;;-4.15;100.00
56721;BME280;53183;47.412;18.884;2024-01-30T03:00:57;101531.72;;;-4.19;100.00
56721;BME280;53183;47.412;18.884;2024-01-30T03:03:24;101532.44;;;-4.23;100.00
56721;BME280;53183;47.412;18.884;2024-01-30T03:05:51;101531.44;;;-4.27;100.00
56721;BME280;53183;47.412;18.884;2024-01-30T03:08:21;101533.25;;;-4.24;100.00
56721;BME280;53183;47.412;18.884;2024-01-30T03:10:48;101529.97;;;-4.20;100.00
56721;BME280;53183;47.412;18.884;2024-01-30T03:13:17;101528.97;;;-4.23;100.00
56721;BME280;53183;47.412;18.884;2024-01-30T03:15:44;101530.09;;;-4.17;100.00
56721;BME280;53183;47.412;18.884;2024-01-30T03:18:11;101529.25;;;-4.16;100.00
56721;BME280;53183;47.412;18.884;2024-01-30T03:20:40;101528.66;;;-4.31;100.00
56721;BME280;53183;47.412;18.884;2024-01-30T03:23:07;101537.19;;;-4.34;100.00
56721;BME280;53183;47.412;18.884;2024-01-30T03:25:34;101532.44;;;-4.23;100.00
56721;BME280;53183;47.412;18.884;2024-01-30T03:28:01;101541.00;;;-4.24;100.00
56721;BME280;53183;47.412;18.884;2024-01-30T03:30:30;101530.59;;;-4.26;100.00
56721;BME280;53183;47.412;18.884;2024-01-30T03:32:57;101534.25;;;-4.20;100.00
56721;BME280;53183;47.412;18.884;2024-01-30T03:35:25;101540.22;;;-4.21;100.00
56721;BME280;53183;47.412;18.884;2024-01-30T03:37:52;101528.25;;;-4.19;100.00
56721;BME280;53183;47.412;18.884;2024-01-30T03:40:19;101531.97;;;-4.13;100.00
56721;BME280;53183;47.412;18.884;2024-01-30T03:42:47;101526.75;;;-4.14;100.00
56721;BME280;53183;47.412;18.884;2024-01-30T03:45:14;101524.69;;;-4.23;100.00
56721;BME280;53183;47.412;18.884;2024-01-30T03:47:43;101526.44;;;-4.22;100.00
56721;BME280;53183;47.412;18.884;2024-01-30T03:50:10;101516.81;;;-4.26;100.00
56721;BME280;53183;47.412;18.884;2024-01-30T03:52:38;101507.25;;;-4.29;100.00
56721;BME280;53183;47.412;18.884;2024-01-30T03:55:05;101509.72;;;-4.32;100.00
56721;BME280;53183;47.412;18.884;2024-01-30T03:57:33;101510.59;;;-4.31;100.00
56721;BME280;53183;47.412;18.884;2024-01-30T03:59:59;101509.59;;;-4.35;100.00
56721;BME280;53183;47.412;18.884;2024-01-30T04:02:38;101510.31;;;-4.39;100.00
56721;BME280;53183;47.412;18.884;2024-01-30T04:05:07;101514.59;;;-4.39;100.00
56721;BME280;53183;47.412;18.884;2024-01-30T04:07:34;101512.28;;;-4.32;100.00
56721;BME280;53183;47.412;18.884;2024-01-30T04:10:02;101505.50;;;-4.30;100.00
56721;BME280;53183;47.412;18.884;2024-01-30T04:12:32;101509.09;;;-4.26;100.00
56721;BME280;53183;47.412;18.884;2024-01-30T04:14:59;101507.50;;;-4.22;100.00
56721;BME280;53183;47.412;18.884;2024-01-30T04:17:26;101509.09;;;-4.26;100.00
56721;BME280;53183;47.412;18.884;2024-01-30T04:19:56;101500.69;;;-4.20;100.00
56721;BME280;53183;47.412;18.884;2024-01-30T04:22:23;101502.44;;;-4.19;100.00
56721;BME280;53183;47.412;18.884;2024-01-30T04:24:51;101503.97;;;-4.25;100.00
56721;BME280;53183;47.412;18.884;2024-01-30T04:27:18;101498.75;;;-4.26;100.00
56721;BME280;53183;47.412;18.884;2024-01-30T04:29:45;101499.75;;;-4.22;100.00
56721;BME280;53183;47.412;18.884;2024-01-30T04:32:13;101504.91;;;-4.22;100.00
56721;BME280;53183;47.412;18.884;2024-01-30T04:34:41;101500.88;;;-4.16;100.00
56721;BME280;53183;47.412;18.884;2024-01-30T04:37:10;101501.56;;;-4.20;100.00
56721;BME280;53183;47.412;18.884;2024-01-30T04:39:37;101510.06;;;-4.22;100.00
56721;BME280;53183;47.412;18.884;2024-01-30T04:42:04;101510.03;;;-4.24;100.00
56721;BME280;53183;47.412;18.884;2024-01-30T04:44:35;101504.91;;;-4.22;100.00
56721;BME280;53183;47.412;18.884;2024-01-30T04:47:03;101509.31;;;-4.20;100.00
56721;BME280;53183;47.412;18.884;2024-01-30T04:49:32;101506.66;;;-4.21;100.00
56721;BME280;53183;47.412;18.884;2024-01-30T04:51:59;101512.78;;;-4.19;100.00
56721;BME280;53183;47.412;18.884;2024-01-30T04:54:30;101516.81;;;-4.26;100.00
56721;BME280;53183;47.412;18.884;2024-01-30T04:57:00;101519.38;;;-4.28;100.00
56721;BME280;53183;47.412;18.884;2024-01-30T04:59:28;101515.06;;;-4.27;100.00
56721;BME280;53183;47.412;18.884;2024-01-30T05:01:55;101513.53;;;-4.22;100.00
56721;BME280;53183;47.412;18.884;2024-01-30T05:04:23;101517.81;;;-4.22;100.00
56721;BME280;53183;47.412;18.884;2024-01-30T05:06:51;101520.16;;;-4.29;100.00
56721;BME280;53183;47.412;18.884;2024-01-30T05:09:18;101520.12;;;-4.30;100.00
56721;BME280;53183;47.412;18.884;2024-01-30T05:11:46;101530.56;;;-4.27;100.00
56721;BME280;53183;47.412;18.884;2024-01-30T05:14:14;101527.38;;;-4.20;100.00
56721;BME280;53183;47.412;18.884;2024-01-30T05:16:42;101531.94;;;-4.14;100.00
56721;BME280;53183;47.412;18.884;2024-01-30T05:19:14;101532.56;;;-4.20;100.00
56721;BME280;53183;47.412;18.884;2024-01-30T05:21:41;101528.28;;;-1.31;100.00
56721;BME280;53183;47.412;18.884;2024-01-30T05:24:08;101522.69;;;5.38;100.00
56721;BME280;53183;47.412;18.884;2024-01-30T05:26:38;101518.09;;;6.52;100.00
56721;BME280;53183;47.412;18.884;2024-01-30T05:29:06;101530.50;;;5.06;100.00
56721;BME280;53183;47.412;18.884;2024-01-30T05:31:34;101534.84;;;3.31;100.00
56721;BME280;53183;47.412;18.884;2024-01-30T05:34:02;101535.81;;;1.88;100.00
56721;BME280;53183;47.412;18.884;2024-01-30T05:36:30;101541.50;;;0.64;100.00
56721;BME280;53183;47.412;18.884;2024-01-30T05:38:57;101542.91;;;-0.32;100.00
56721;BME280;53183;47.412;18.884;2024-01-30T05:41:25;101541.28;;;-0.98;100.00
56721;BME280;53183;47.412;18.884;2024-01-30T05:43:53;101553.09;;;-1.40;100.00
56721;BME280;53183;47.412;18.884;2024-01-30T05:46:22;101548.50;;;-1.81;100.00
56721;BME280;53183;47.412;18.884;2024-01-30T05:48:52;101553.44;;;-2.17;100.00
56721;BME280;53183;47.412;18.884;2024-01-30T05:51:19;101544.78;;;-2.45;100.00
56721;BME280;53183;47.412;18.884;2024-01-30T05:53:46;101544.88;;;-2.69;100.00
56721;BME280;53183;47.412;18.884;2024-01-30T05:56:14;101542.50;;;-2.88;100.00
56721;BME280;53183;47.412;18.884;2024-01-30T05:58:42;101551.09;;;-2.89;100.00
56721;BME280;53183;47.412;18.884;2024-01-30T06:01:10;101538.56;;;-3.02;100.00
56721;BME280;53183;47.412;18.884;2024-01-30T06:03:37;101547.53;;;-3.17;100.00
56721;BME280;53183;47.412;18.884;2024-01-30T06:06:06;101551.41;;;-3.30;100.00
56721;BME280;53183;47.412;18.884;2024-01-30T06:08:36;101551.84;;;-3.41;100.00
56721;BME280;53183;47.412;18.884;2024-01-30T06:11:03;101547.50;;;-3.42;100.00
56721;BME280;53183;47.412;18.884;2024-01-30T06:13:35;101544.75;;;-3.47;100.00
56721;BME280;53183;47.412;18.884;2024-01-30T06:16:02;101548.97;;;-3.49;100.00
56721;BME280;53183;47.412;18.884;2024-01-30T06:18:32;101547.19;;;-3.51;100.00
56721;BME280;53183;47.412;18.884;2024-01-30T06:21:00;101547.84;;;-3.57;100.00
56721;BME280;53183;47.412;18.884;2024-01-30T06:23:27;101553.00;;;-3.57;100.00
56721;BME280;53183;47.412;18.884;2024-01-30T06:25:54;101555.50;;;-3.59;100.00
56721;BME280;53183;47.412;18.884;2024-01-30T06:28:21;101547.69;;;-3.62;100.00
56721;BME280;53183;47.412;18.884;2024-01-30T06:30:49;101551.94;;;-3.62;100.00
56721;BME280;53183;47.412;18.884;2024-01-30T06:33:17;101550.94;;;-3.66;100.00
56721;BME280;53183;47.412;18.884;2024-01-30T06:35:46;101552.06;;;-3.59;100.00
56721;BME280;53183;47.412;18.884;2024-01-30T06:38:13;101556.66;;;-3.52;100.00
56721;BME280;53183;47.412;18.884;2024-01-30T06:40:44;101557.69;;;-3.47;100.00
56721;BME280;53183;47.412;18.884;2024-01-30T06:43:13;101556.09;;;-3.43;100.00
56721;BME280;53183;47.412;18.884;2024-01-30T06:45:40;101565.16;;;-3.31;100.00
56721;BME280;53183;47.412;18.884;2024-01-30T06:48:11;101556.03;;;-3.21;100.00
56721;BME280;53183;47.412;18.884;2024-01-30T06:50:40;101564.84;;;-3.16;100.00
56721;BME280;53183;47.412;18.884;2024-01-30T06:53:07;101563.16;;;-3.14;100.00
56721;BME280;53183;47.412;18.884;2024-01-30T06:55:46;101557.47;;;-3.03;100.00
56721;BME280;53183;47.412;18.884;2024-01-30T06:58:14;101561.34;;;-2.92;100.00
56721;BME280;53183;47.412;18.884;2024-01-30T07:00:41;101560.03;;;-2.79;100.00
56721;BME280;53183;47.412;18.884;2024-01-30T07:03:09;101566.41;;;-2.70;100.00
56721;BME280;53183;47.412;18.884;2024-01-30T07:05:38;101559.88;;;-2.58;100.00
56721;BME280;53183;47.412;18.884;2024-01-30T07:08:06;101562.87;;;-2.46;100.00
56721;BME280;53183;47.412;18.884;2024-01-30T07:10:35;101565.78;;;-2.36;100.00
56721;BME280;53183;47.412;18.884;2024-01-30T07:13:03;101569.78;;;-2.18;100.00
56721;BME280;53183;47.412;18.884;2024-01-30T07:15:32;101563.25;;;-2.07;100.00
56721;BME280;53183;47.412;18.884;2024-01-30T07:18:00;101573.00;;;-1.98;100.00
56721;BME280;53183;47.412;18.884;2024-01-30T07:20:28;101564.75;;;-1.85;100.00
56721;BME280;53183;47.412;18.884;2024-01-30T07:22:58;101565.97;;;-1.74;100.00
56721;BME280;53183;47.412;18.884;2024-01-30T07:25:25;101575.97;;;-1.57;100.00
56721;BME280;53183;47.412;18.884;2024-01-30T07:27:58;101570.41;;;-1.39;100.00
56721;BME280;53183;47.412;18.884;2024-01-30T07:30:26;101569.16;;;-1.22;100.00
56721;BME280;53183;47.412;18.884;2024-01-30T07:32:53;101562.91;;;-0.97;100.00
56721;BME280;53183;47.412;18.884;2024-01-30T07:35:23;101561.44;;;-0.87;100.00
56721;BME280;53183;47.412;18.884;2024-01-30T07:37:50;101560.06;;;-0.73;100.00
56721;BME280;53183;47.412;18.884;2024-01-30T07:40:18;101549.50;;;-0.46;100.00
56721;BME280;53183;47.412;18.884;2024-01-30T07:42:45;101553.47;;;-0.26;100.00
56721;BME280;53183;47.412;18.884;2024-01-30T07:45:13;101551.13;;;-0.13;100.00
56721;BME280;53183;47.412;18.884;2024-01-30T07:47:40;101546.94;;;-0.07;100.00
56721;BME280;53183;47.412;18.884;2024-01-30T07:50:08;101550.62;;;0.03;100.00
56721;BME280;53183;47.412;18.884;2024-01-30T07:52:43;101549.88;;;0.09;100.00
56721;BME280;53183;47.412;18.884;2024-01-30T07:55:29;101552.09;;;0.30;100.00
56721;BME280;53183;47.412;18.884;2024-01-30T07:58:24;101549.13;;;0.55;100.00
56721;BME280;53183;47.412;18.884;2024-01-30T08:00:54;101552.53;;;0.51;100.00
56721;BME280;53183;47.412;18.884;2024-01-30T08:03:24;101546.84;;;0.72;100.00
56721;BME280;53183;47.412;18.884;2024-01-30T08:05:51;101550.69;;;0.89;100.00
56721;BME280;53183;47.412;18.884;2024-01-30T08:08:18;101546.75;;;1.13;100.00
56721;BME280;53183;47.412;18.884;2024-01-30T08:10:47;101552.37;;;1.37;100.00
56721;BME280;53183;47.412;18.884;2024-01-30T08:13:14;101554.38;;;1.52;100.00
56721;BME280;53183;47.412;18.884;2024-01-30T08:15:41;101555.50;;;1.68;100.00
56721;BME280;53183;47.412;18.884;2024-01-30T08:18:09;101559.16;;;1.81;100.00
56721;BME280;53183;47.412;18.884;2024-01-30T08:20:38;101562.50;;;1.72;100.00
56721;BME280;53183;47.412;18.884;2024-01-30T08:23:07;101566.91;;;1.76;100.00
56721;BME280;53183;47.412;18.884;2024-01-30T08:25:45;101569.56;;;1.81;100.00
56721;BME280;53183;47.412;18.884;2024-01-30T08:28:13;101562.72;;;1.84;100.00
56721;BME280;53183;47.412;18.884;2024-01-30T08:30:42;101564.69;;;2.04;100.00
56721;BME280;53183;47.412;18.884;2024-01-30T08:33:09;101561.63;;;2.31;100.00
56721;BME280;53183;47.412;18.884;2024-01-30T08:35:36;101572.00;;;2.28;100.00
56721;BME280;53183;47.412;18.884;2024-01-30T08:38:03;101583.38;;;2.33;100.00
56721;BME280;53183;47.412;18.884;2024-01-30T08:40:30;101578.28;;;2.42;100.00
56721;BME280;53183;47.412;18.884;2024-01-30T08:42:57;101584.31;;;2.38;100.00
56721;BME280;53183;47.412;18.884;2024-01-30T08:45:25;101580.94;;;2.45;100.00
56721;BME280;53183;47.412;18.884;2024-01-30T08:47:52;101578.41;;;2.53;100.00
56721;BME280;53183;47.412;18.884;2024-01-30T08:50:20;101583.03;;;2.74;100.00
56721;BME280;53183;47.412;18.884;2024-01-30T08:52:47;101577.16;;;2.95;100.00
56721;BME280;53183;47.412;18.884;2024-01-30T08:55:16;101569.37;;;2.96;100.00
56721;BME280;53183;47.412;18.884;2024-01-30T08:57:44;101571.06;;;2.94;100.00
56721;BME280;53183;47.412;18.884;2024-01-30T09:00:13;101568.47;;;2.96;100.00
56721;BME280;53183;47.412;18.884;2024-01-30T09:02:41;101572.72;;;2.86;100.00
56721;BME280;53183;47.412;18.884;2024-01-30T09:05:10;101567.44;;;2.80;100.00
56721;BME280;53183;47.412;18.884;2024-01-30T09:07:37;101567.41;;;2.77;100.00
56721;BME280;53183;47.412;18.884;2024-01-30T09:10:07;101570.78;;;2.68;100.00
56721;BME280;53183;47.412;18.884;2024-01-30T09:12:38;101568.22;;;2.73;100.00
56721;BME280;53183;47.412;18.884;2024-01-30T09:15:05;101563.00;;;2.73;100.00
56721;BME280;53183;47.412;18.884;2024-01-30T09:17:33;101565.63;;;2.74;100.00
56721;BME280;53183;47.412;18.884;2024-01-30T09:20:00;101566.50;;;2.73;100.00
56721;BME280;53183;47.412;18.884;2024-01-30T09:22:28;101570.72;;;2.64;100.00
56721;BME280;53183;47.412;18.884;2024-01-30T09:24:56;101572.44;;;2.62;100.00
56721;BME280;53183;47.412;18.884;2024-01-30T09:27:26;101569.91;;;2.69;100.00
56721;BME280;53183;47.412;18.884;2024-01-30T09:29:54;101573.50;;;2.79;100.00
56721;BME280;53183;47.412;18.884;2024-01-30T09:32:23;101569.13;;;2.75;100.00
56721;BME280;53183;47.412;18.884;2024-01-30T09:34:50;101565.66;;;2.77;100.00
56721;BME280;53183;47.412;18.884;2024-01-30T09:37:18;101558.53;;;2.63;100.00
56721;BME280;53183;47.412;18.884;2024-01-30T09:39:48;101559.66;;;2.83;100.00
56721;BME280;53183;47.412;18.884;2024-01-30T09:42:27;101557.03;;;2.85;100.00
56721;BME280;53183;47.412;18.884;2024-01-30T09:44:56;101562.50;;;3.08;100.00
56721;BME280;53183;47.412;18.884;2024-01-30T09:47:23;101563.41;;;3.10;100.00
56721;BME280;53183;47.412;18.884;2024-01-30T09:49:55;101567.00;;;3.19;100.00
56721;BME280;53183;47.412;18.884;2024-01-30T09:52:25;101562.87;;;3.47;100.00
56721;BME280;53183;47.412;18.884;2024-01-30T09:54:53;101561.28;;;3.68;100.00
56721;BME280;53183;47.412;18.884;2024-01-30T09:57:21;101560.53;;;3.84;100.00
56721;BME280;53183;47.412;18.884;2024-01-30T09:59:49;101564.97;;;3.93;100.00
56721;BME280;53183;47.412;18.884;2024-01-30T10:02:18;101572.87;;;3.99;100.00
56721;BME280;53183;47.412;18.884;2024-01-30T10:04:48;101571.22;;;4.19;100.00
56721;BME280;53183;47.412;18.884;2024-01-30T10:07:17;101568.69;;;4.32;100.00
56721;BME280;53183;47.412;18.884;2024-01-30T10:09:46;101558.41;;;4.82;100.00
56721;BME280;53183;47.412;18.884;2024-01-30T10:12:15;101563.72;;;4.98;100.00
56721;BME280;53183;47.412;18.884;2024-01-30T10:14:44;101570.69;;;4.97;100.00
56721;BME280;53183;47.412;18.884;2024-01-30T10:17:12;101568.94;;;4.98;100.00
56721;BME280;53183;47.412;18.884;2024-01-30T10:19:56;101568.81;;;4.55;100.00
56721;BME280;53183;47.412;18.884;2024-01-30T10:22:23;101566.16;;;4.49;100.00
56721;BME280;53183;47.412;18.884;2024-01-30T10:24:50;101557.38;;;4.36;100.00
56721;BME280;53183;47.412;18.884;2024-01-30T10:27:25;101556.44;;;4.21;100.00
56721;BME280;53183;47.412;18.884;2024-01-30T10:29:53;101557.34;;;4.30;100.00
56721;BME280;53183;47.412;18.884;2024-01-30T10:32:21;101556.47;;;4.32;100.00
56721;BME280;53183;47.412;18.884;2024-01-30T10:34:48;101560.91;;;4.41;100.00
56721;BME280;53183;47.412;18.884;2024-01-30T10:37:16;101561.69;;;4.26;100.00
56721;BME280;53183;47.412;18.884;2024-01-30T10:39:45;101550.53;;;4.73;100.00
56721;BME280;53183;47.412;18.884;2024-01-30T10:42:17;101548.91;;;5.38;100.00
56721;BME280;53183;47.412;18.884;2024-01-30T10:45:08;101548.03;;;5.34;100.00
56721;BME280;53183;47.412;18.884;2024-01-30T10:47:36;101539.28;;;5.74;100.00
56721;BME280;53183;47.412;18.884;2024-01-30T10:50:05;101550.66;;;5.77;98.31
56721;BME280;53183;47.412;18.884;2024-01-30T10:52:33;101536.66;;;5.26;100.00
56721;BME280;53183;47.412;18.884;2024-01-30T10:55:04;101534.03;;;5.18;100.00
56721;BME280;53183;47.412;18.884;2024-01-30T10:57:34;101533.19;;;5.44;100.00
56721;BME280;53183;47.412;18.884;2024-01-30T11:00:08;101529.66;;;5.56;98.89
56721;BME280;53183;47.412;18.884;2024-01-30T11:02:42;101527.91;;;5.43;99.68
56721;BME280;53183;47.412;18.884;2024-01-30T11:05:11;101526.19;;;5.48;100.00
56721;BME280;53183;47.412;18.884;2024-01-30T11:07:39;101520.94;;;5.41;99.37
56721;BME280;53183;47.412;18.884;2024-01-30T11:10:11;101516.56;;;5.37;100.00
56721;BME280;53183;47.412;18.884;2024-01-30T11:12:42;101505.19;;;5.41;100.00
56721;BME280;53183;47.412;18.884;2024-01-30T11:15:15;101504.34;;;5.44;100.00
56721;BME280;53183;47.412;18.884;2024-01-30T11:20:27;101500.81;;;5.39;100.00
56721;BME280;53183;47.412;18.884;2024-01-30T11:22:56;101499.97;;;5.60;100.00
56721;BME280;53183;47.412;18.884;2024-01-30T11:25:25;101500.84;;;5.31;100.00
56721;BME280;53183;47.412;18.884;2024-01-30T11:27:55;101493.84;;;5.52;99.47
56721;BME280;53183;47.412;18.884;2024-01-30T11:30:27;101489.47;;;5.48;100.00
56721;BME280;53183;47.412;18.884;2024-01-30T11:32:59;101498.19;;;5.73;99.85
56721;BME280;53183;47.412;18.884;2024-01-30T11:35:31;101494.72;;;5.48;99.62
56721;BME280;53183;47.412;18.884;2024-01-30T11:38:00;101490.34;;;5.45;99.69
56721;BME280;53183;47.412;18.884;2024-01-30T11:40:29;101492.09;;;5.51;99.76
56721;BME280;53183;47.412;18.884;2024-01-30T11:42:58;101495.59;;;5.53;100.00
56721;BME280;53183;47.412;18.884;2024-01-30T11:45:29;101490.34;;;5.51;100.00
56721;BME280;53183;47.412;18.884;2024-01-30T11:47:58;101488.59;;;5.12;100.00
56721;BME280;53183;47.412;18.884;2024-01-30T11:50:33;101488.63;;;5.36;100.00
56721;BME280;53183;47.412;18.884;2024-01-30T11:53:02;101481.63;;;5.23;100.00
56721;BME280;53183;47.412;18.884;2024-01-30T11:55:30;101478.09;;;4.97;100.00
56721;BME280;53183;47.412;18.884;2024-01-30T11:58:02;101476.38;;;5.02;100.00
56721;BME280;53183;47.412;18.884;2024-01-30T12:00:33;101471.97;;;4.75;100.00
56721;BME280;53183;47.412;18.884;2024-01-30T12:03:03;101466.72;;;4.61;100.00
56721;BME280;53183;47.412;18.884;2024-01-30T12:05:31;101461.44;;;4.53;100.00
56721;BME280;53183;47.412;18.884;2024-01-30T12:07:59;101451.72;;;4.17;100.00
56721;BME280;53183;47.412;18.884;2024-01-30T12:10:28;101451.50;;;3.74;100.00
56721;BME280;53183;47.412;18.884;2024-01-30T12:12:57;101450.66;;;3.81;100.00
56721;BME280;53183;47.412;18.884;2024-01-30T12:15:24;101445.44;;;3.80;100.00
56721;BME280;53183;47.412;18.884;2024-01-30T12:18:06;101447.28;;;4.00;100.00
56721;BME280;53183;47.412;18.884;2024-01-30T12:20:35;101447.25;;;3.97;100.00
56721;BME280;53183;47.412;18.884;2024-01-30T12:23:05;101442.09;;;4.13;100.00
56721;BME280;53183;47.412;18.884;2024-01-30T12:25:34;101430.78;;;4.20;100.00
56721;BME280;53183;47.412;18.884;2024-01-30T12:28:02;101436.06;;;4.21;100.00
56721;BME280;53183;47.412;18.884;2024-01-30T12:30:34;101439.50;;;4.16;100.00
56721;BME280;53183;47.412;18.884;2024-01-30T12:33:05;101441.22;;;4.11;100.00
56721;BME280;53183;47.412;18.884;2024-01-30T12:35:38;101433.34;;;3.98;100.00
56721;BME280;53183;47.412;18.884;2024-01-30T12:38:18;101441.19;;;4.05;100.00
56721;BME280;53183;47.412;18.884;2024-01-30T12:40:47;101444.66;;;3.97;100.00
56721;BME280;53183;47.412;18.884;2024-01-30T12:43:18;101434.16;;;3.88;100.00
56721;BME280;53183;47.412;18.884;2024-01-30T12:46:00;101434.19;;;3.93;100.00